sensor_id;sensor_type;location;lat;lon;timestamp;pressure;altitude;pressure_sealevel;temperature;humidity
42945;BME280;28584;42.636;23.294;2023-02-16T00:00:30;124619.28;;;-2.50;100.00
42945;BME280;28584;42.636;23.294;2023-02-16T00:02:56;124406.91;;;-2.51;100.00
42945;BME280;28584;42.636;23.294;2023-02-16T00:05:31;125024.53;;;-2.60;100.00
42945;BME280;28584;42.636;23.294;2023-02-16T00:07:57;125226.50;;;-2.64;100.00
42945;BME280;28584;42.636;23.294;2023-02-16T00:10:24;125824.72;;;-2.74;100.00
42945;BME280;28584;42.636;23.294;2023-02-16T00:12:51;126491.50;;;-2.78;100.00
42945;BME280;28584;42.636;23.294;2023-02-16T00:15:35;125370.13;;;-2.74;100.00
42945;BME280;28584;42.636;23.294;2023-02-16T00:18:02;125778.31;;;-2.83;100.00
42945;BME280;28584;42.636;23.294;2023-02-16T00:20:30;126373.69;;;-2.84;100.00
42945;BME280;28584;42.636;23.294;2023-02-16T00:22:56;126272.28;;;-2.83;100.00
42945;BME280;28584;42.636;23.294;2023-02-16T00:25:22;126524.22;;;-2.86;100.00
42945;BME280;28584;42.636;23.294;2023-02-16T00:27:48;126676.75;;;-2.95;100.00
42945;BME280;28584;42.636;23.294;2023-02-16T00:30:16;125756.44;;;-2.87;100.00
42945;BME280;28584;42.636;23.294;2023-02-16T00:32:42;125807.50;;;-2.93;100.00
42945;BME280;28584;42.636;23.294;2023-02-16T00:35:18;126755.28;;;-3.03;100.00
42945;BME280;28584;42.636;23.294;2023-02-16T00:37:45;126291.16;;;-3.04;100.00
42945;BME280;28584;42.636;23.294;2023-02-16T00:40:12;124980.91;;;-2.97;100.00
42945;BME280;28584;42.636;23.294;2023-02-16T00:42:38;125354.81;;;-3.02;100.00
42945;BME280;28584;42.636;23.294;2023-02-16T00:45:05;125205.72;;;-3.05;100.00
42945;BME280;28584;42.636;23.294;2023-02-16T00:47:42;124534.44;;;-3.07;100.00
42945;BME280;28584;42.636;23.294;2023-02-16T00:50:31;123664.81;;;-3.05;100.00
42945;BME280;28584;42.636;23.294;2023-02-16T00:52:57;123027.22;;;-3.06;100.00
42945;BME280;28584;42.636;23.294;2023-02-16T00:55:36;122539.13;;;-3.09;100.00
42945;BME280;28584;42.636;23.294;2023-02-16T00:58:10;120236.31;;;-2.91;100.00
42945;BME280;28584;42.636;23.294;2023-02-16T01:00:41;118484.84;;;-2.80;100.00
42945;BME280;28584;42.636;23.294;2023-02-16T01:03:16;118656.94;;;-2.86;100.00
42945;BME280;28584;42.636;23.294;2023-02-16T01:05:43;118337.81;;;-2.85;100.00
42945;BME280;28584;42.636;23.294;2023-02-16T01:08:11;118327.25;;;-2.89;100.00
42945;BME280;28584;42.636;23.294;2023-02-16T01:10:56;118455.50;;;-2.99;100.00
42945;BME280;28584;42.636;23.294;2023-02-16T01:13:41;117030.94;;;-2.89;100.00
42945;BME280;28584;42.636;23.294;2023-02-16T01:16:14;114976.44;;;-2.72;100.00
42945;BME280;28584;42.636;23.294;2023-02-16T01:18:40;114182.91;;;-2.70;100.00
42945;BME280;28584;42.636;23.294;2023-02-16T01:21:06;113813.56;;;-2.63;100.00
42945;BME280;28584;42.636;23.294;2023-02-16T01:23:31;114902.47;;;-2.69;100.00
42945;BME280;28584;42.636;23.294;2023-02-16T01:25:57;114855.56;;;-2.64;100.00
42945;BME280;28584;42.636;23.294;2023-02-16T01:28:24;115958.16;;;-2.69;100.00
42945;BME280;28584;42.636;23.294;2023-02-16T01:30:51;117821.34;;;-2.79;100.00
42945;BME280;28584;42.636;23.294;2023-02-16T01:33:16;119963.16;;;-2.93;100.00
42945;BME280;28584;42.636;23.294;2023-02-16T01:35:42;120535.09;;;-2.95;100.00
42945;BME280;28584;42.636;23.294;2023-02-16T01:38:23;121034.72;;;-2.96;100.00
42945;BME280;28584;42.636;23.294;2023-02-16T01:41:14;121739.63;;;-3.05;100.00
42945;BME280;28584;42.636;23.294;2023-02-16T01:44:13;120030.00;;;-2.87;100.00
42945;BME280;28584;42.636;23.294;2023-02-16T01:49:42;121804.91;;;-3.06;100.00
42945;BME280;28584;42.636;23.294;2023-02-16T01:52:31;122196.22;;;-3.06;100.00
42945;BME280;28584;42.636;23.294;2023-02-16T01:55:13;123090.56;;;-3.15;100.00
42945;BME280;28584;42.636;23.294;2023-02-16T01:57:44;122630.56;;;-3.13;100.00
42945;BME280;28584;42.636;23.294;2023-02-16T02:00:15;122778.41;;;-3.21;100.00
42945;BME280;28584;42.636;23.294;2023-02-16T02:02:57;122539.50;;;-3.22;100.00
42945;BME280;28584;42.636;23.294;2023-02-16T02:05:44;123456.28;;;-3.37;100.00
42945;BME280;28584;42.636;23.294;2023-02-16T02:08:46;123852.59;;;-3.38;100.00
42945;BME280;28584;42.636;23.294;2023-02-16T02:11:36;125275.47;;;-3.56;100.00
42945;BME280;28584;42.636;23.294;2023-02-16T02:16:32;124271.97;;;-3.50;100.00
42945;BME280;28584;42.636;23.294;2023-02-16T02:18:58;122763.63;;;-3.48;100.00
42945;BME280;28584;42.636;23.294;2023-02-16T02:42:43;118997.78;;;-3.62;100.00
42945;BME280;28584;42.636;23.294;2023-02-16T02:45:35;117872.59;;;-3.48;100.00
42945;BME280;28584;42.636;23.294;2023-02-16T02:47:40;117589.50;;;-3.49;100.00
42945;BME280;28584;42.636;23.294;2023-02-16T02:50:41;116905.84;;;-3.45;100.00
42945;BME280;28584;42.636;23.294;2023-02-16T02:53:29;115307.63;;;-3.19;100.00
42945;BME280;28584;42.636;23.294;2023-02-16T02:55:58;115509.47;;;-3.23;100.00
42945;BME280;28584;42.636;23.294;2023-02-16T02:58:43;116162.41;;;-3.28;100.00
42945;BME280;28584;42.636;23.294;2023-02-16T03:01:30;116727.16;;;-3.31;100.00
42945;BME280;28584;42.636;23.294;2023-02-16T03:03:59;117515.75;;;-3.40;100.00
42945;BME280;28584;42.636;23.294;2023-02-16T03:06:29;117711.19;;;-3.39;100.00
42945;BME280;28584;42.636;23.294;2023-02-16T03:09:01;117429.78;;;-3.40;100.00
42945;BME280;28584;42.636;23.294;2023-02-16T03:11:28;116865.72;;;-3.38;100.00
42945;BME280;28584;42.636;23.294;2023-02-16T03:14:27;116892.44;;;-3.45;100.00
42945;BME280;28584;42.636;23.294;2023-02-16T03:17:21;117083.19;;;-3.51;100.00
42945;BME280;28584;42.636;23.294;2023-02-16T03:20:06;115925.81;;;-3.49;100.00
42945;BME280;28584;42.636;23.294;2023-02-16T03:22:51;114642.94;;;-3.45;100.00
42945;BME280;28584;42.636;23.294;2023-02-16T03:25:37;113208.56;;;-3.37;100.00
42945;BME280;28584;42.636;23.294;2023-02-16T03:28:24;112336.41;;;-3.37;100.00
42945;BME280;28584;42.636;23.294;2023-02-16T03:31:11;111539.41;;;-3.40;100.00
42945;BME280;28584;42.636;23.294;2023-02-16T03:33:38;111053.22;;;-3.36;100.00
42945;BME280;28584;42.636;23.294;2023-02-16T03:36:05;110899.06;;;-3.42;100.00
42945;BME280;28584;42.636;23.294;2023-02-16T03:38:31;109808.84;;;-3.36;100.00
42945;BME280;28584;42.636;23.294;2023-02-16T03:40:57;109478.72;;;-3.46;100.00
42945;BME280;28584;42.636;23.294;2023-02-16T03:43:27;108399.56;;;-3.41;100.00
42945;BME280;28584;42.636;23.294;2023-02-16T03:45:53;107347.31;;;-3.33;100.00
42945;BME280;28584;42.636;23.294;2023-02-16T03:48:19;106959.75;;;-3.40;100.00
42945;BME280;28584;42.636;23.294;2023-02-16T03:50:45;106418.66;;;-3.40;100.00
42945;BME280;28584;42.636;23.294;2023-02-16T03:53:10;105771.28;;;-3.37;100.00
42945;BME280;28584;42.636;23.294;2023-02-16T03:55:42;105183.75;;;-3.33;100.00
42945;BME280;28584;42.636;23.294;2023-02-16T03:58:10;105038.50;;;-3.39;100.00
42945;BME280;28584;42.636;23.294;2023-02-16T04:00:36;104618.25;;;-3.41;100.00
42945;BME280;28584;42.636;23.294;2023-02-16T04:03:03;104386.97;;;-3.38;100.00
42945;BME280;28584;42.636;23.294;2023-02-16T04:05:28;104708.97;;;-3.53;100.00
42945;BME280;28584;42.636;23.294;2023-02-16T04:07:54;104518.03;;;-3.54;100.00
42945;BME280;28584;42.636;23.294;2023-02-16T04:10:19;104019.16;;;-3.50;100.00
42945;BME280;28584;42.636;23.294;2023-02-16T04:12:45;103598.91;;;-3.48;100.00
42945;BME280;28584;42.636;23.294;2023-02-16T04:15:19;103020.44;;;-3.42;100.00
42945;BME280;28584;42.636;23.294;2023-02-16T04:17:46;102993.19;;;-3.47;100.00
42945;BME280;28584;42.636;23.294;2023-02-16T04:20:16;102835.09;;;-3.44;100.00
42945;BME280;28584;42.636;23.294;2023-02-16T04:22:43;102485.56;;;-3.45;100.00
42945;BME280;28584;42.636;23.294;2023-02-16T04:25:08;102374.94;;;-3.44;100.00
42945;BME280;28584;42.636;23.294;2023-02-16T04:27:35;101901.84;;;-3.39;100.00
42945;BME280;28584;42.636;23.294;2023-02-16T04:30:01;101082.09;;;-3.19;100.00
42945;BME280;28584;42.636;23.294;2023-02-16T04:32:26;100732.97;;;-3.15;100.00
42945;BME280;28584;42.636;23.294;2023-02-16T04:34:52;101354.13;;;-3.20;100.00
42945;BME280;28584;42.636;23.294;2023-02-16T04:37:17;101746.94;;;-3.23;100.00
42945;BME280;28584;42.636;23.294;2023-02-16T04:39:43;101706.38;;;-3.19;100.00
42945;BME280;28584;42.636;23.294;2023-02-16T04:42:08;101920.56;;;-3.11;100.00
42945;BME280;28584;42.636;23.294;2023-02-16T04:44:33;102327.81;;;-3.15;100.00
42945;BME280;28584;42.636;23.294;2023-02-16T04:46:59;102464.44;;;-3.17;100.00
42945;BME280;28584;42.636;23.294;2023-02-16T04:49:24;102533.53;;;-3.11;100.00
42945;BME280;28584;42.636;23.294;2023-02-16T04:51:50;102789.78;;;-3.13;100.00
42945;BME280;28584;42.636;23.294;2023-02-16T04:54:15;103575.88;;;-3.24;100.00
42945;BME280;28584;42.636;23.294;2023-02-16T04:56:44;104346.50;;;-3.32;100.00
42945;BME280;28584;42.636;23.294;2023-02-16T04:59:10;104658.19;;;-3.36;100.00
42945;BME280;28584;42.636;23.294;2023-02-16T05:01:36;104673.63;;;-3.41;100.00
42945;BME280;28584;42.636;23.294;2023-02-16T05:04:01;104629.81;;;-3.40;100.00
42945;BME280;28584;42.636;23.294;2023-02-16T05:06:26;104363.84;;;-3.39;100.00
42945;BME280;28584;42.636;23.294;2023-02-16T05:08:52;104551.78;;;-3.50;100.00
42945;BME280;28584;42.636;23.294;2023-02-16T05:11:17;104584.97;;;-3.54;100.00
42945;BME280;28584;42.636;23.294;2023-02-16T05:14:01;104204.22;;;-3.57;100.00
42945;BME280;28584;42.636;23.294;2023-02-16T05:16:45;103735.56;;;-3.51;100.00
42945;BME280;28584;42.636;23.294;2023-02-16T05:19:11;103589.84;;;-3.60;100.00
42945;BME280;28584;42.636;23.294;2023-02-16T05:21:37;103207.16;;;-3.58;100.00
42945;BME280;28584;42.636;23.294;2023-02-16T05:24:07;102760.16;;;-3.55;100.00
42945;BME280;28584;42.636;23.294;2023-02-16T05:26:35;102287.88;;;-3.48;100.00
42945;BME280;28584;42.636;23.294;2023-02-16T05:29:01;101497.78;;;-3.38;100.00
42945;BME280;28584;42.636;23.294;2023-02-16T05:31:27;100984.06;;;-3.36;100.00
42945;BME280;28584;42.636;23.294;2023-02-16T05:33:53;100626.00;;;-3.31;100.00
42945;BME280;28584;42.636;23.294;2023-02-16T05:36:18;100044.56;;;-3.22;100.00
42945;BME280;28584;42.636;23.294;2023-02-16T05:38:44;99354.63;;;-3.09;100.00
42945;BME280;28584;42.636;23.294;2023-02-16T05:41:10;98942.94;;;-3.04;100.00
42945;BME280;28584;42.636;23.294;2023-02-16T05:43:35;98606.28;;;-2.94;100.00
42945;BME280;28584;42.636;23.294;2023-02-16T05:46:08;98046.00;;;-2.80;100.00
42945;BME280;28584;42.636;23.294;2023-02-16T05:48:33;97524.72;;;-2.55;100.00
42945;BME280;28584;42.636;23.294;2023-02-16T05:50:59;96806.38;;;-2.32;100.00
42945;BME280;28584;42.636;23.294;2023-02-16T05:53:24;96234.75;;;-2.05;100.00
42945;BME280;28584;42.636;23.294;2023-02-16T05:55:49;96153.50;;;-1.77;100.00
42945;BME280;28584;42.636;23.294;2023-02-16T05:58:15;96566.50;;;-1.56;100.00
42945;BME280;28584;42.636;23.294;2023-02-16T06:00:40;96739.34;;;-1.25;100.00
42945;BME280;28584;42.636;23.294;2023-02-16T06:03:06;97699.63;;;-0.87;100.00
42945;BME280;28584;42.636;23.294;2023-02-16T06:05:31;101646.75;;;-0.70;100.00
42945;BME280;28584;42.636;23.294;2023-02-16T06:07:57;105384.75;;;-0.43;100.00
42945;BME280;28584;42.636;23.294;2023-02-16T06:10:22;112510.88;;;-0.19;100.00
42945;BME280;28584;42.636;23.294;2023-02-16T06:12:48;128272.19;;;-0.10;100.00
42945;BME280;28584;42.636;23.294;2023-02-16T06:15:13;143533.50;;;0.18;100.00
42945;BME280;28584;42.636;23.294;2023-02-16T06:17:38;158618.03;;;0.22;100.00
42945;BME280;28584;42.636;23.294;2023-02-16T06:20:04;158690.91;;;0.49;100.00
42945;BME280;28584;42.636;23.294;2023-02-16T06:22:30;158724.03;;;0.62;100.00
42945;BME280;28584;42.636;23.294;2023-02-16T06:24:55;158729.31;;;0.64;100.00
42945;BME280;28584;42.636;23.294;2023-02-16T06:27:23;158778.34;;;0.82;100.00
42945;BME280;28584;42.636;23.294;2023-02-16T06:29:48;158828.75;;;1.01;100.00
42945;BME280;28584;42.636;23.294;2023-02-16T06:32:14;158902.97;;;1.29;100.00
42945;BME280;28584;42.636;23.294;2023-02-16T06:34:39;158930.78;;;1.40;100.00
42945;BME280;28584;42.636;23.294;2023-02-16T06:37:04;158991.81;;;1.63;100.00
42945;BME280;28584;42.636;23.294;2023-02-16T06:39:30;159050.16;;;1.85;100.00
42945;BME280;28584;42.636;23.294;2023-02-16T06:41:55;159052.84;;;1.86;100.00
42945;BME280;28584;42.636;23.294;2023-02-16T06:44:21;159177.53;;;2.33;100.00
42945;BME280;28584;42.636;23.294;2023-02-16T06:46:47;159364.69;;;3.04;100.00
42945;BME280;28584;42.636;23.294;2023-02-16T06:49:15;159485.56;;;3.49;100.00
42945;BME280;28584;42.636;23.294;2023-02-16T06:51:42;159589.19;;;3.88;100.00
42945;BME280;28584;42.636;23.294;2023-02-16T06:54:08;159688.84;;;4.26;100.00
42945;BME280;28584;42.636;23.294;2023-02-16T06:56:33;159573.22;;;3.82;100.00
42945;BME280;28584;42.636;23.294;2023-02-16T06:59:00;159432.44;;;3.29;100.00
42945;BME280;28584;42.636;23.294;2023-02-16T07:01:25;159633.03;;;4.05;100.00
42945;BME280;28584;42.636;23.294;2023-02-16T07:03:52;159769.97;;;4.56;100.00
42945;BME280;28584;42.636;23.294;2023-02-16T07:06:19;159690.19;;;4.26;100.00
42945;BME280;28584;42.636;23.294;2023-02-16T07:08:44;159704.81;;;4.32;100.00
42945;BME280;28584;42.636;23.294;2023-02-16T07:11:10;159772.59;;;4.57;100.00
42945;BME280;28584;42.636;23.294;2023-02-16T07:13:35;159853.69;;;4.88;100.00
42945;BME280;28584;42.636;23.294;2023-02-16T07:16:05;159783.22;;;4.61;100.00
42945;BME280;28584;42.636;23.294;2023-02-16T07:18:32;159775.25;;;4.58;100.00
42945;BME280;28584;42.636;23.294;2023-02-16T07:20:58;159852.41;;;4.87;100.00
42945;BME280;28584;42.636;23.294;2023-02-16T07:23:23;159896.28;;;5.04;99.92
42945;BME280;28584;42.636;23.294;2023-02-16T07:25:49;159913.56;;;5.10;95.82
42945;BME280;28584;42.636;23.294;2023-02-16T07:28:14;159953.50;;;5.25;94.85
42945;BME280;28584;42.636;23.294;2023-02-16T07:30:40;159946.81;;;5.23;95.06
42945;BME280;28584;42.636;23.294;2023-02-16T07:33:06;159929.53;;;5.16;92.33
42945;BME280;28584;42.636;23.294;2023-02-16T07:35:33;159957.47;;;5.27;94.65
42945;BME280;28584;42.636;23.294;2023-02-16T07:37:59;160035.97;;;5.56;88.98
42945;BME280;28584;42.636;23.294;2023-02-16T07:40:24;160047.91;;;5.61;89.42
42945;BME280;28584;42.636;23.294;2023-02-16T07:42:50;160099.84;;;5.81;86.03
42945;BME280;28584;42.636;23.294;2023-02-16T07:45:15;160075.88;;;5.71;85.63
42945;BME280;28584;42.636;23.294;2023-02-16T07:47:41;160026.63;;;5.53;83.83
42945;BME280;28584;42.636;23.294;2023-02-16T07:50:07;159900.28;;;5.05;87.34
42945;BME280;28584;42.636;23.294;2023-02-16T07:52:32;160009.38;;;5.46;92.76
42945;BME280;28584;42.636;23.294;2023-02-16T07:54:58;159972.09;;;5.32;90.96
42945;BME280;28584;42.636;23.294;2023-02-16T07:57:25;159805.84;;;4.70;100.00
42945;BME280;28584;42.636;23.294;2023-02-16T07:59:51;159609.13;;;3.96;100.00
42945;BME280;28584;42.636;23.294;2023-02-16T08:02:18;159605.13;;;3.94;100.00
42945;BME280;28584;42.636;23.294;2023-02-16T08:04:44;159605.13;;;3.94;100.00
42945;BME280;28584;42.636;23.294;2023-02-16T08:07:16;159656.97;;;4.14;100.00
42945;BME280;28584;42.636;23.294;2023-02-16T08:09:42;159660.94;;;4.15;100.00
42945;BME280;28584;42.636;23.294;2023-02-16T08:12:12;159546.63;;;3.72;100.00
42945;BME280;28584;42.636;23.294;2023-02-16T08:14:38;159546.63;;;3.72;100.00
42945;BME280;28584;42.636;23.294;2023-02-16T08:17:05;159719.41;;;4.37;100.00
42945;BME280;28584;42.636;23.294;2023-02-16T08:19:30;159972.09;;;5.32;100.00
42945;BME280;28584;42.636;23.294;2023-02-16T08:21:57;159825.81;;;4.77;100.00
42945;BME280;28584;42.636;23.294;2023-02-16T08:24:24;159775.25;;;4.58;100.00
42945;BME280;28584;42.636;23.294;2023-02-16T08:26:50;160038.63;;;5.57;100.00
42945;BME280;28584;42.636;23.294;2023-02-16T08:29:19;160121.19;;;5.89;90.96
42945;BME280;28584;42.636;23.294;2023-02-16T08:31:46;160175.75;;;6.09;84.58
42945;BME280;28584;42.636;23.294;2023-02-16T08:34:13;160198.38;;;6.18;81.62
42945;BME280;28584;42.636;23.294;2023-02-16T08:36:40;160193.09;;;6.16;82.65
42945;BME280;28584;42.636;23.294;2023-02-16T08:39:16;160233.00;;;6.31;80.96
42945;BME280;28584;42.636;23.294;2023-02-16T08:41:45;160264.94;;;6.43;78.54
42945;BME280;28584;42.636;23.294;2023-02-16T08:44:11;160195.72;;;6.17;76.17
42945;BME280;28584;42.636;23.294;2023-02-16T08:46:39;160211.72;;;6.23;75.79
42945;BME280;28584;42.636;23.294;2023-02-16T08:49:06;160298.28;;;6.55;75.17
42945;BME280;28584;42.636;23.294;2023-02-16T08:51:33;160170.44;;;6.07;74.23
42945;BME280;28584;42.636;23.294;2023-02-16T08:54:00;160029.28;;;5.54;82.45
42945;BME280;28584;42.636;23.294;2023-02-16T08:56:27;159888.28;;;5.01;89.10
42945;BME280;28584;42.636;23.294;2023-02-16T08:58:57;159864.34;;;4.92;92.67
42945;BME280;28584;42.636;23.294;2023-02-16T09:01:22;160020.00;;;5.50;90.67
42945;BME280;28584;42.636;23.294;2023-02-16T09:03:48;160086.53;;;5.75;89.00
42945;BME280;28584;42.636;23.294;2023-02-16T09:06:16;160123.84;;;5.90;86.25
42945;BME280;28584;42.636;23.294;2023-02-16T09:08:42;160147.81;;;5.99;84.86
42945;BME280;28584;42.636;23.294;2023-02-16T09:11:13;160094.50;;;5.78;84.44
42945;BME280;28584;42.636;23.294;2023-02-16T09:13:40;160058.59;;;5.65;85.98
42945;BME280;28584;42.636;23.294;2023-02-16T09:16:11;160057.25;;;5.64;88.22
42945;BME280;28584;42.636;23.294;2023-02-16T09:18:38;159884.28;;;4.99;93.47
42945;BME280;28584;42.636;23.294;2023-02-16T09:21:07;159703.44;;;4.31;100.00
42945;BME280;28584;42.636;23.294;2023-02-16T09:23:38;159775.25;;;4.58;100.00
42945;BME280;28584;42.636;23.294;2023-02-16T09:26:04;159773.94;;;4.58;100.00
42945;BME280;28584;42.636;23.294;2023-02-16T09:28:34;159710.13;;;4.34;100.00
42945;BME280;28584;42.636;23.294;2023-02-16T09:33:42;159679.56;;;4.22;100.00
42945;BME280;28584;42.636;23.294;2023-02-16T09:36:10;159650.31;;;4.11;100.00
42945;BME280;28584;42.636;23.294;2023-02-16T09:38:36;159667.59;;;4.18;100.00
42945;BME280;28584;42.636;23.294;2023-02-16T09:43:59;159563.94;;;3.79;100.00
42945;BME280;28584;42.636;23.294;2023-02-16T09:46:28;159533.38;;;3.67;100.00
42945;BME280;28584;42.636;23.294;2023-02-16T09:48:54;159578.56;;;3.84;100.00
42945;BME280;28584;42.636;23.294;2023-02-16T09:51:28;159597.16;;;3.91;100.00
42945;BME280;28584;42.636;23.294;2023-02-16T09:56:33;159631.72;;;4.04;100.00
42945;BME280;28584;42.636;23.294;2023-02-16T09:59:04;159655.63;;;4.13;100.00
42945;BME280;28584;42.636;23.294;2023-02-16T10:01:56;159670.22;;;4.19;100.00
42945;BME280;28584;42.636;23.294;2023-02-16T10:04:49;159686.19;;;4.25;100.00
42945;BME280;28584;42.636;23.294;2023-02-16T10:08:08;159676.91;;;4.21;100.00
42945;BME280;28584;42.636;23.294;2023-02-16T10:10:15;159621.03;;;4.00;100.00
42945;BME280;28584;42.636;23.294;2023-02-16T10:13:01;159637.00;;;4.06;100.00
42945;BME280;28584;42.636;23.294;2023-02-16T10:15:30;159695.53;;;4.28;100.00
42945;BME280;28584;42.636;23.294;2023-02-16T10:18:02;159740.66;;;4.45;100.00
42945;BME280;28584;42.636;23.294;2023-02-16T10:20:32;159750.00;;;4.49;100.00
42945;BME280;28584;42.636;23.294;2023-02-16T10:23:10;159738.03;;;4.44;100.00
42945;BME280;28584;42.636;23.294;2023-02-16T10:28:13;159817.81;;;4.74;100.00
42945;BME280;28584;42.636;23.294;2023-02-16T10:30:44;159833.78;;;4.80;100.00
42945;BME280;28584;42.636;23.294;2023-02-16T10:35:51;159906.91;;;5.08;100.00
42945;BME280;28584;42.636;23.294;2023-02-16T10:38:43;159881.66;;;4.98;100.00
42945;BME280;28584;42.636;23.294;2023-02-16T10:41:29;159884.28;;;4.99;100.00
42945;BME280;28584;42.636;23.294;2023-02-16T10:44:10;159904.25;;;5.07;100.00
42945;BME280;28584;42.636;23.294;2023-02-16T10:46:41;159835.09;;;4.81;100.00
42945;BME280;28584;42.636;23.294;2023-02-16T10:49:10;159881.66;;;4.98;100.00
42945;BME280;28584;42.636;23.294;2023-02-16T10:51:37;159918.88;;;5.12;100.00
42945;BME280;28584;42.636;23.294;2023-02-16T11:01:57;159965.41;;;5.30;100.00
42945;BME280;28584;42.636;23.294;2023-02-16T11:04:39;160002.66;;;5.44;100.00
42945;BME280;28584;42.636;23.294;2023-02-16T11:07:17;159980.09;;;5.35;100.00
42945;BME280;28584;42.636;23.294;2023-02-16T11:09:45;160002.66;;;5.44;100.00
42945;BME280;28584;42.636;23.294;2023-02-16T11:15:40;160012.00;;;5.47;100.00
42945;BME280;28584;42.636;23.294;2023-02-16T11:18:05;160031.97;;;5.55;100.00
42945;BME280;28584;42.636;23.294;2023-02-16T11:23:27;160099.84;;;5.81;99.28
42945;BME280;28584;42.636;23.294;2023-02-16T11:28:32;160115.84;;;5.87;98.15
42945;BME280;28584;42.636;23.294;2023-02-16T11:31:01;160150.47;;;6.00;96.40
42945;BME280;28584;42.636;23.294;2023-02-16T11:33:27;160121.19;;;5.89;94.15
42945;BME280;28584;42.636;23.294;2023-02-16T11:35:54;160159.81;;;6.03;95.52
42945;BME280;28584;42.636;23.294;2023-02-16T11:38:27;160182.38;;;6.12;93.09
42945;BME280;28584;42.636;23.294;2023-02-16T11:40:54;160171.75;;;6.08;90.49
42945;BME280;28584;42.636;23.294;2023-02-16T11:43:19;160167.75;;;6.06;88.99
42945;BME280;28584;42.636;23.294;2023-02-16T11:45:56;160207.72;;;6.21;87.81
42945;BME280;28584;42.636;23.294;2023-02-16T11:48:26;160222.34;;;6.27;86.49
42945;BME280;28584;42.636;23.294;2023-02-16T11:51:01;160246.28;;;6.36;85.89
42945;BME280;28584;42.636;23.294;2023-02-16T11:53:34;160274.28;;;6.46;85.72
42945;BME280;28584;42.636;23.294;2023-02-16T11:56:22;160355.50;;;6.77;82.32
42945;BME280;28584;42.636;23.294;2023-02-16T12:04:29;160460.75;;;7.16;73.81
42945;BME280;28584;42.636;23.294;2023-02-16T12:07:24;160446.09;;;7.11;74.21
42945;BME280;28584;42.636;23.294;2023-02-16T12:34:41;160459.44;;;7.16;71.69
42945;BME280;28584;42.636;23.294;2023-02-16T12:44:58;160518.06;;;7.38;70.85
42945;BME280;28584;42.636;23.294;2023-02-16T12:47:33;160531.38;;;7.43;71.13
42945;BME280;28584;42.636;23.294;2023-02-16T12:50:02;160552.72;;;7.51;70.47
42945;BME280;28584;42.636;23.294;2023-02-16T12:52:47;160574.03;;;7.59;69.26
42945;BME280;28584;42.636;23.294;2023-02-16T12:55:41;160582.03;;;7.62;68.48
42945;BME280;28584;42.636;23.294;2023-02-16T12:58:18;160572.66;;;7.58;67.12
42945;BME280;28584;42.636;23.294;2023-02-16T13:01:07;160587.34;;;7.64;66.99
42945;BME280;28584;42.636;23.294;2023-02-16T13:11:41;160638.00;;;7.83;65.72
42945;BME280;28584;42.636;23.294;2023-02-16T13:14:24;160654.03;;;7.89;65.03
42945;BME280;28584;42.636;23.294;2023-02-16T13:16:57;160651.31;;;7.88;64.67
42945;BME280;28584;42.636;23.294;2023-02-16T13:19:24;160652.66;;;7.88;64.35
42945;BME280;28584;42.636;23.294;2023-02-16T13:32:42;160678.00;;;7.98;63.83
42945;BME280;28584;42.636;23.294;2023-02-16T13:38:17;160707.31;;;8.09;65.10
42945;BME280;28584;42.636;23.294;2023-02-16T13:43:54;160706.00;;;8.08;63.77
42945;BME280;28584;42.636;23.294;2023-02-16T13:46:36;160712.66;;;8.11;63.84
42945;BME280;28584;42.636;23.294;2023-02-16T13:49:03;160707.31;;;8.09;63.49
42945;BME280;28584;42.636;23.294;2023-02-16T13:51:42;160702.00;;;8.07;63.44
42945;BME280;28584;42.636;23.294;2023-02-16T13:54:30;160691.34;;;8.03;64.16
42945;BME280;28584;42.636;23.294;2023-02-16T13:56:59;160672.69;;;7.96;64.25
42945;BME280;28584;42.636;23.294;2023-02-16T14:01:54;160635.34;;;7.82;65.27
42945;BME280;28584;42.636;23.294;2023-02-16T14:06:50;160596.69;;;7.67;65.41
42945;BME280;28584;42.636;23.294;2023-02-16T14:11:59;160543.34;;;7.47;65.77
42945;BME280;28584;42.636;23.294;2023-02-16T14:22:54;160391.50;;;6.90;66.61
42945;BME280;28584;42.636;23.294;2023-02-16T14:30:41;160221.00;;;6.26;70.68
42945;BME280;28584;42.636;23.294;2023-02-16T14:35:43;160153.09;;;6.01;73.34
42945;BME280;28584;42.636;23.294;2023-02-16T14:40:56;160097.16;;;5.79;76.85
42945;BME280;28584;42.636;23.294;2023-02-16T14:57:39;159926.88;;;5.15;91.61
42945;BME280;28584;42.636;23.294;2023-02-16T15:00:11;159909.56;;;5.09;94.11
42945;BME280;28584;42.636;23.294;2023-02-16T15:02:41;159889.63;;;5.01;96.45
42945;BME280;28584;42.636;23.294;2023-02-16T15:05:22;159867.03;;;4.93;98.53
42945;BME280;28584;42.636;23.294;2023-02-16T15:07:50;159852.41;;;4.87;100.00
42945;BME280;28584;42.636;23.294;2023-02-16T15:10:25;159807.19;;;4.70;100.00
42945;BME280;28584;42.636;23.294;2023-02-16T15:12:52;159783.22;;;4.61;100.00
42945;BME280;28584;42.636;23.294;2023-02-16T15:15:28;159769.97;;;4.56;100.00
42945;BME280;28584;42.636;23.294;2023-02-16T15:18:02;159735.38;;;4.43;100.00
42945;BME280;28584;42.636;23.294;2023-02-16T15:20:33;159718.13;;;4.37;100.00
42945;BME280;28584;42.636;23.294;2023-02-16T15:23:02;159699.50;;;4.30;100.00
42945;BME280;28584;42.636;23.294;2023-02-16T15:25:30;159670.22;;;4.19;100.00
42945;BME280;28584;42.636;23.294;2023-02-16T15:28:02;159650.31;;;4.11;100.00
42945;BME280;28584;42.636;23.294;2023-02-16T15:30:33;159629.03;;;4.03;100.00
42945;BME280;28584;42.636;23.294;2023-02-16T15:33:02;159614.41;;;3.98;100.00
42945;BME280;28584;42.636;23.294;2023-02-16T15:35:40;159597.16;;;3.91;100.00